createdAt,value
2017-08-31T00:00:14.887Z,94.50
2017-08-31T00:02:42.519Z,94.20
2017-08-31T00:05:10.163Z,94.00
2017-08-31T00:07:37.801Z,93.90
2017-08-31T00:10:05.435Z,93.60
2017-08-31T00:12:33.074Z,94.40
2017-08-31T00:15:00.704Z,94.30
2017-08-31T00:17:28.375Z,94.30
2017-08-31T00:19:55.981Z,94.20
2017-08-31T00:22:23.620Z,94.30
2017-08-31T00:24:51.352Z,94.50
2017-08-31T00:27:18.974Z,94.40
2017-08-31T00:29:46.591Z,94.30
2017-08-31T00:32:14.227Z,94.00
2017-08-31T00:34:41.846Z,94.00
2017-08-31T00:37:09.827Z,94.30
2017-08-31T00:39:37.831Z,94.40
2017-08-31T00:42:05.538Z,94.30
2017-08-31T00:44:33.194Z,94.60
2017-08-31T00:47:00.899Z,94.30
2017-08-31T00:49:28.508Z,94.60
2017-08-31T00:51:56.185Z,95.70
2017-08-31T00:54:24.192Z,96.40
2017-08-31T00:56:51.882Z,96.90
2017-08-31T00:59:19.632Z,96.30
2017-08-31T01:01:47.302Z,96.10
2017-08-31T01:04:14.916Z,96.40
2017-08-31T01:06:42.624Z,96.60
2017-08-31T01:09:10.405Z,96.70
2017-08-31T01:11:38.064Z,96.40
2017-08-31T01:14:05.800Z,96.00
2017-08-31T01:16:33.443Z,95.90
2017-08-31T01:19:01.069Z,95.80
2017-08-31T01:21:28.789Z,95.50
2017-08-31T01:23:56.437Z,95.30
2017-08-31T01:26:24.122Z,96.10
2017-08-31T01:28:52.484Z,96.50
2017-08-31T01:31:20.149Z,96.20
2017-08-31T01:33:47.790Z,96.00
2017-08-31T01:36:15.455Z,95.80
2017-08-31T01:38:43.066Z,95.70
2017-08-31T01:41:10.744Z,95.80
2017-08-31T01:43:38.381Z,95.90
2017-08-31T01:46:06.095Z,95.60
2017-08-31T01:48:33.736Z,95.40
2017-08-31T01:51:01.393Z,95.40
2017-08-31T01:53:29.049Z,95.50
2017-08-31T01:55:56.676Z,96.00
2017-08-31T01:58:24.336Z,96.30
2017-08-31T02:00:51.993Z,96.40
2017-08-31T02:03:19.616Z,96.40
2017-08-31T02:05:47.316Z,96.70
2017-08-31T02:08:14.960Z,97.20
2017-08-31T02:10:43.609Z,97.20
2017-08-31T02:13:11.933Z,97.00
2017-08-31T02:15:39.889Z,96.70
2017-08-31T02:18:07.985Z,96.90
2017-08-31T02:20:36.040Z,97.00
2017-08-31T02:23:03.688Z,97.30
2017-08-31T02:25:31.500Z,97.40
2017-08-31T02:27:59.478Z,97.20
2017-08-31T02:30:27.092Z,97.40
2017-08-31T02:32:54.784Z,97.40
2017-08-31T02:35:22.389Z,97.10
2017-08-31T02:37:49.983Z,97.30
2017-08-31T02:40:17.752Z,97.60
2017-08-31T02:42:45.356Z,97.40
2017-08-31T02:45:13.012Z,97.40
2017-08-31T02:47:40.654Z,97.30
2017-08-31T02:50:08.282Z,97.60
2017-08-31T02:52:36.210Z,97.90
2017-08-31T02:55:03.964Z,97.60
2017-08-31T02:57:31.664Z,97.20
2017-08-31T02:59:59.260Z,97.10
2017-08-31T03:02:26.879Z,97.30
2017-08-31T03:04:54.562Z,97.60
2017-08-31T03:07:22.186Z,97.50
2017-08-31T03:09:51.609Z,97.40
2017-08-31T03:12:19.798Z,97.60
2017-08-31T03:14:47.636Z,97.90
2017-08-31T03:17:15.262Z,97.60
2017-08-31T03:19:42.901Z,97.70
2017-08-31T03:22:11.412Z,97.70
2017-08-31T03:24:39.075Z,97.70
2017-08-31T03:27:06.907Z,97.90
2017-08-31T03:29:34.504Z,97.60
2017-08-31T03:32:02.112Z,97.60
2017-08-31T03:34:29.752Z,97.50
2017-08-31T03:36:57.354Z,97.40
2017-08-31T03:39:24.986Z,97.30
2017-08-31T03:41:52.644Z,97.20
2017-08-31T03:44:20.253Z,97.80
2017-08-31T03:46:47.890Z,99.50
2017-08-31T03:49:15.517Z,99.00
2017-08-31T03:51:43.168Z,98.30
2017-08-31T03:54:10.784Z,97.90
2017-08-31T03:56:38.414Z,96.90
2017-08-31T03:59:06.050Z,97.50
2017-08-31T04:01:33.670Z,97.30
2017-08-31T04:04:01.316Z,97.30
2017-08-31T04:06:28.912Z,97.00
2017-08-31T04:08:56.537Z,96.60
2017-08-31T04:11:24.191Z,97.30
2017-08-31T04:13:51.844Z,97.80
2017-08-31T04:16:19.471Z,97.40
2017-08-31T04:18:47.139Z,97.50
2017-08-31T04:21:14.760Z,97.30
2017-08-31T04:23:42.400Z,97.90
2017-08-31T04:26:10.275Z,98.40
2017-08-31T04:28:37.907Z,98.50
2017-08-31T04:31:05.548Z,98.30
2017-08-31T04:33:33.195Z,98.10
2017-08-31T04:36:00.819Z,98.80
2017-08-31T04:38:28.438Z,98.20
2017-08-31T04:40:56.069Z,98.20
2017-08-31T04:43:23.707Z,98.60
2017-08-31T04:45:52.681Z,98.30
2017-08-31T04:48:20.724Z,98.20
2017-08-31T04:50:48.347Z,98.10
2017-08-31T04:53:15.983Z,98.50
2017-08-31T04:55:43.594Z,98.50
2017-08-31T04:58:11.208Z,98.20
2017-08-31T05:00:38.842Z,98.30
2017-08-31T05:03:06.528Z,98.00
2017-08-31T05:05:35.252Z,97.80
2017-08-31T05:08:02.915Z,97.70
2017-08-31T05:10:30.572Z,97.50
2017-08-31T05:12:58.195Z,97.20
2017-08-31T05:15:25.873Z,97.90
2017-08-31T05:17:53.578Z,97.30
2017-08-31T05:20:21.238Z,97.80
2017-08-31T05:22:48.896Z,97.70
2017-08-31T05:25:16.547Z,97.20
2017-08-31T05:27:44.185Z,97.00
2017-08-31T05:30:11.825Z,97.00
2017-08-31T05:32:39.472Z,97.00
2017-08-31T05:35:07.179Z,96.70
2017-08-31T05:37:35.618Z,96.60
2017-08-31T05:40:03.300Z,96.40
2017-08-31T05:42:30.993Z,96.30
2017-08-31T05:44:58.637Z,96.20
2017-08-31T05:47:26.400Z,96.80
2017-08-31T05:49:54.150Z,96.60
2017-08-31T05:52:22.966Z,95.70
2017-08-31T05:54:50.595Z,95.90
2017-08-31T05:57:18.260Z,96.40
2017-08-31T05:59:45.920Z,95.70
2017-08-31T06:02:13.706Z,96.20
2017-08-31T06:04:41.378Z,96.20
2017-08-31T06:07:09.277Z,95.90
2017-08-31T06:09:37.193Z,95.50
2017-08-31T06:12:07.639Z,95.40
2017-08-31T06:14:35.658Z,95.70
2017-08-31T06:17:03.291Z,96.10
2017-08-31T06:19:31.098Z,96.10
2017-08-31T06:22:01.553Z,94.20
2017-08-31T06:24:29.938Z,94.00
2017-08-31T06:26:57.728Z,94.10
2017-08-31T06:29:25.537Z,93.50
2017-08-31T06:31:53.759Z,93.10
2017-08-31T06:34:21.412Z,92.90
2017-08-31T06:36:49.051Z,93.20
2017-08-31T06:39:16.660Z,93.30
2017-08-31T06:41:44.323Z,93.50
2017-08-31T06:44:11.948Z,93.60
2017-08-31T06:46:39.602Z,93.80
2017-08-31T06:49:10.619Z,93.50
2017-08-31T06:51:38.943Z,94.10
2017-08-31T06:54:07.544Z,93.60
2017-08-31T06:56:35.475Z,93.10
2017-08-31T06:59:05.255Z,92.10
2017-08-31T07:01:37.614Z,91.90
2017-08-31T07:04:08.402Z,92.40
2017-08-31T07:06:36.122Z,92.50
2017-08-31T07:09:06.625Z,92.40
2017-08-31T07:11:34.248Z,92.30
2017-08-31T07:14:02.007Z,92.60
2017-08-31T07:16:29.838Z,92.60
2017-08-31T07:18:59.848Z,92.60
2017-08-31T07:21:27.489Z,92.30
2017-08-31T07:23:55.228Z,92.40
2017-08-31T07:26:22.892Z,92.20
2017-08-31T07:28:51.552Z,91.90
2017-08-31T07:31:19.408Z,92.10
2017-08-31T07:33:47.872Z,92.40
2017-08-31T07:36:18.478Z,91.80
2017-08-31T07:38:46.782Z,91.30
2017-08-31T07:41:15.163Z,91.20
2017-08-31T07:43:42.978Z,91.50
2017-08-31T07:46:13.903Z,90.30
2017-08-31T07:48:42.259Z,90.90
2017-08-31T07:51:12.011Z,91.20
2017-08-31T07:53:39.625Z,91.40
2017-08-31T07:56:07.650Z,90.60
2017-08-31T07:58:38.473Z,90.00
2017-08-31T08:01:07.449Z,90.30
2017-08-31T08:03:37.072Z,90.00
2017-08-31T08:06:05.173Z,90.60
2017-08-31T08:08:33.635Z,90.30
2017-08-31T08:13:33.720Z,88.30
2017-08-31T08:16:01.349Z,89.50
2017-08-31T08:18:29.020Z,88.60
2017-08-31T08:20:56.745Z,87.70
2017-08-31T08:23:25.158Z,87.80
2017-08-31T08:25:52.990Z,88.30
2017-08-31T08:28:20.849Z,87.80
2017-08-31T08:30:48.528Z,86.20
2017-08-31T08:33:16.160Z,87.10
2017-08-31T08:35:43.856Z,86.10
2017-08-31T08:38:11.629Z,85.70
2017-08-31T08:40:39.349Z,86.80
2017-08-31T08:43:07.130Z,86.00
2017-08-31T08:45:34.830Z,83.70
2017-08-31T08:48:02.465Z,83.20
2017-08-31T08:50:30.173Z,84.70
2017-08-31T08:52:57.823Z,85.20
2017-08-31T08:55:25.506Z,83.00
2017-08-31T08:57:53.196Z,83.00
2017-08-31T09:00:20.849Z,84.50
2017-08-31T09:02:48.488Z,82.20
2017-08-31T09:05:16.161Z,81.70
2017-08-31T09:07:43.874Z,83.60
2017-08-31T09:10:11.636Z,80.40
2017-08-31T09:12:39.344Z,81.60
2017-08-31T09:15:07.253Z,79.70
2017-08-31T09:17:35.280Z,78.80
2017-08-31T09:20:03.085Z,80.60
2017-08-31T09:22:30.799Z,81.00
2017-08-31T09:24:58.483Z,78.80
2017-08-31T09:27:26.239Z,80.50
2017-08-31T09:29:54.014Z,74.50
2017-08-31T09:32:21.919Z,74.50
2017-08-31T09:37:23.483Z,74.80
2017-08-31T09:39:51.230Z,75.70
2017-08-31T09:42:19.054Z,74.50
2017-08-31T09:44:46.756Z,77.30
2017-08-31T09:47:14.871Z,75.10
2017-08-31T09:49:42.641Z,75.00
2017-08-31T09:52:10.383Z,74.50
2017-08-31T09:54:38.684Z,70.80
2017-08-31T09:57:06.405Z,73.60
2017-08-31T09:59:34.016Z,71.50
2017-08-31T10:02:01.703Z,70.10
2017-08-31T10:04:38.873Z,70.10
2017-08-31T10:07:06.768Z,71.30
2017-08-31T10:09:34.546Z,73.50
2017-08-31T10:12:02.216Z,70.50
2017-08-31T10:14:30.362Z,72.10
2017-08-31T10:17:00.139Z,70.60
2017-08-31T10:19:28.682Z,69.70
2017-08-31T10:21:58.180Z,66.80
2017-08-31T10:24:25.810Z,66.70
2017-08-31T10:26:57.641Z,70.40
2017-08-31T10:29:25.306Z,68.60
2017-08-31T10:31:53.289Z,67.90
2017-08-31T10:34:20.990Z,67.90
2017-08-31T10:36:48.628Z,66.80
2017-08-31T10:39:16.408Z,71.10
2017-08-31T10:41:44.265Z,66.70
2017-08-31T10:44:12.155Z,68.10
2017-08-31T10:46:39.797Z,65.20
2017-08-31T10:49:07.557Z,66.60
2017-08-31T10:51:35.195Z,65.00
2017-08-31T10:54:02.895Z,68.00
2017-08-31T10:56:30.557Z,65.60
2017-08-31T10:58:58.248Z,64.70
2017-08-31T11:01:26.274Z,65.30
2017-08-31T11:03:53.955Z,65.60
2017-08-31T11:06:22.225Z,63.60
2017-08-31T11:08:50.753Z,63.10
2017-08-31T11:11:18.450Z,63.50
2017-08-31T11:13:46.104Z,64.30
2017-08-31T11:16:13.739Z,63.70
2017-08-31T11:18:41.419Z,64.70
2017-08-31T11:21:09.212Z,63.40
2017-08-31T11:23:36.847Z,64.40
2017-08-31T11:26:04.508Z,63.60
2017-08-31T11:28:32.250Z,63.10
2017-08-31T11:30:59.943Z,64.80
2017-08-31T11:33:27.794Z,63.20
2017-08-31T11:35:55.560Z,64.20
2017-08-31T11:38:23.281Z,62.80
2017-08-31T11:43:24.996Z,65.20
2017-08-31T11:45:52.640Z,62.60
2017-08-31T11:48:20.244Z,63.00
2017-08-31T11:50:47.915Z,62.50
2017-08-31T11:53:15.525Z,65.00
2017-08-31T11:55:43.191Z,61.80
2017-08-31T11:58:10.947Z,62.50
2017-08-31T12:00:38.578Z,60.60
2017-08-31T12:03:06.254Z,59.50
2017-08-31T12:05:33.924Z,60.40
2017-08-31T12:08:01.566Z,59.90
2017-08-31T12:10:30.531Z,59.60
2017-08-31T12:12:58.224Z,59.30
2017-08-31T12:15:26.124Z,57.70
2017-08-31T12:17:53.769Z,58.30
2017-08-31T12:20:21.487Z,58.20
2017-08-31T12:22:49.101Z,58.10
2017-08-31T12:25:16.733Z,58.90
2017-08-31T12:27:44.412Z,59.60
2017-08-31T12:30:12.300Z,58.70
2017-08-31T12:32:40.206Z,58.90
2017-08-31T12:35:07.869Z,58.20
2017-08-31T12:37:35.539Z,59.90
2017-08-31T12:40:03.155Z,58.40
2017-08-31T12:42:30.805Z,58.80
2017-08-31T12:44:58.529Z,58.70
2017-08-31T12:47:26.265Z,59.10
2017-08-31T12:49:53.909Z,57.30
2017-08-31T12:52:22.476Z,59.60
2017-08-31T12:54:50.149Z,56.70
2017-08-31T12:57:17.818Z,56.30
2017-08-31T12:59:45.500Z,57.60
2017-08-31T13:02:13.153Z,57.60
2017-08-31T13:04:40.796Z,57.40
2017-08-31T13:07:08.468Z,59.90
2017-08-31T13:09:36.115Z,58.00
2017-08-31T13:12:03.980Z,57.70
2017-08-31T13:14:31.597Z,59.40
2017-08-31T13:16:59.248Z,58.60
2017-08-31T13:19:26.902Z,57.20
2017-08-31T13:21:54.563Z,56.40
2017-08-31T13:26:57.942Z,59.10
2017-08-31T13:29:25.616Z,58.10
2017-08-31T13:31:53.215Z,57.10
2017-08-31T13:34:21.190Z,58.50
2017-08-31T13:36:48.842Z,60.20
2017-08-31T13:39:16.492Z,59.70
2017-08-31T13:41:44.193Z,59.10
2017-08-31T13:44:15.448Z,58.50
2017-08-31T13:46:43.139Z,58.60
2017-08-31T13:49:10.881Z,59.30
2017-08-31T13:51:38.528Z,60.40
2017-08-31T13:54:07.068Z,58.50
2017-08-31T13:56:34.742Z,58.50
2017-08-31T13:59:02.372Z,57.90
2017-08-31T14:01:31.360Z,58.20
2017-08-31T14:03:59.105Z,60.30
2017-08-31T14:06:26.754Z,59.40
2017-08-31T14:08:56.567Z,58.10
2017-08-31T14:11:24.297Z,57.80
2017-08-31T14:13:53.404Z,58.60
2017-08-31T14:16:21.203Z,58.60
2017-08-31T14:18:50.265Z,59.00
2017-08-31T14:21:19.084Z,60.20
2017-08-31T14:23:47.610Z,58.50
2017-08-31T14:26:16.040Z,60.10
2017-08-31T14:28:43.699Z,59.60
2017-08-31T14:31:12.891Z,60.60
2017-08-31T14:33:41.123Z,58.30
2017-08-31T14:36:09.209Z,57.40
2017-08-31T14:38:37.816Z,60.00
2017-08-31T14:41:05.492Z,61.50
2017-08-31T14:43:33.129Z,60.70
2017-08-31T14:46:05.605Z,59.60
2017-08-31T14:48:35.300Z,59.90
2017-08-31T14:51:04.943Z,58.90
2017-08-31T14:53:33.127Z,60.80
2017-08-31T14:56:00.818Z,59.40
2017-08-31T14:58:28.501Z,61.10
2017-08-31T15:00:56.272Z,61.10
2017-08-31T15:03:23.913Z,64.80
2017-08-31T15:05:51.588Z,65.70
2017-08-31T15:08:20.059Z,66.40
2017-08-31T15:10:47.827Z,66.40
2017-08-31T15:13:15.493Z,66.60
2017-08-31T15:15:43.148Z,68.20
2017-08-31T15:18:11.137Z,69.60
2017-08-31T15:20:38.817Z,69.20
2017-08-31T15:23:06.620Z,69.30
2017-08-31T15:25:34.324Z,70.00
2017-08-31T15:28:01.953Z,68.90
2017-08-31T15:30:29.954Z,70.00
2017-08-31T15:32:57.608Z,70.50
2017-08-31T15:35:25.285Z,69.90
2017-08-31T15:37:52.893Z,70.20
2017-08-31T15:40:21.394Z,72.70
2017-08-31T15:42:49.088Z,71.90
2017-08-31T15:45:16.728Z,73.50
2017-08-31T15:47:44.390Z,73.50
2017-08-31T15:50:12.205Z,71.20
2017-08-31T15:52:39.852Z,73.30
2017-08-31T15:55:07.567Z,73.00
2017-08-31T15:57:35.212Z,75.70
2017-08-31T16:00:03.328Z,77.00
2017-08-31T16:02:30.997Z,77.30
2017-08-31T16:04:58.681Z,77.70
2017-08-31T16:07:26.369Z,77.30
2017-08-31T16:09:54.059Z,76.70
2017-08-31T16:12:22.602Z,76.50
2017-08-31T16:14:50.681Z,77.50
2017-08-31T16:17:18.417Z,78.20
2017-08-31T16:19:46.115Z,79.20
2017-08-31T16:22:13.897Z,79.40
2017-08-31T16:24:41.551Z,79.50
2017-08-31T16:27:09.513Z,81.90
2017-08-31T16:29:37.250Z,82.80
2017-08-31T16:32:04.938Z,81.40
2017-08-31T16:34:32.887Z,82.30
2017-08-31T16:37:00.970Z,81.30
2017-08-31T16:39:28.603Z,82.20
2017-08-31T16:41:56.278Z,83.70
2017-08-31T16:44:23.969Z,84.70
2017-08-31T16:46:52.309Z,85.50
2017-08-31T16:49:20.035Z,84.60
2017-08-31T16:51:47.664Z,85.70
2017-08-31T16:54:15.405Z,85.00
2017-08-31T16:56:43.114Z,86.50
2017-08-31T16:59:11.547Z,86.70
2017-08-31T17:01:39.283Z,85.90
2017-08-31T17:04:07.019Z,86.40
2017-08-31T17:06:36.443Z,87.10
2017-08-31T17:09:05.770Z,87.60
2017-08-31T17:11:34.777Z,86.80
2017-08-31T17:14:02.475Z,86.70
2017-08-31T17:16:30.141Z,87.50
2017-08-31T17:18:57.899Z,89.30
2017-08-31T17:21:25.568Z,90.80
2017-08-31T17:23:53.155Z,92.00
2017-08-31T17:26:20.794Z,92.90
2017-08-31T17:28:48.434Z,94.60
2017-08-31T17:31:16.054Z,95.20
2017-08-31T17:33:43.701Z,97.20
2017-08-31T17:36:11.453Z,96.80
2017-08-31T17:38:39.092Z,97.10
2017-08-31T17:41:06.817Z,97.40
2017-08-31T17:43:36.204Z,98.10
2017-08-31T17:46:03.829Z,98.60
2017-08-31T17:48:31.423Z,98.40
2017-08-31T17:50:59.086Z,98.50
2017-08-31T17:53:28.248Z,98.40
2017-08-31T17:55:55.872Z,98.10
2017-08-31T17:58:23.612Z,98.40
2017-08-31T18:00:51.264Z,97.90
2017-08-31T18:03:19.858Z,98.00
2017-08-31T18:05:47.588Z,98.00
2017-08-31T18:08:15.233Z,97.90
2017-08-31T18:10:42.864Z,98.20
2017-08-31T18:13:10.736Z,97.50
2017-08-31T18:15:39.054Z,97.90
2017-08-31T18:18:06.747Z,98.10
2017-08-31T18:20:34.429Z,97.80
2017-08-31T18:23:02.072Z,97.90
2017-08-31T18:25:29.724Z,97.60
2017-08-31T18:27:59.335Z,98.40
2017-08-31T18:30:26.932Z,98.80
2017-08-31T18:32:57.305Z,99.10
2017-08-31T18:35:26.187Z,98.90
2017-08-31T18:37:53.974Z,98.90
2017-08-31T18:40:21.613Z,99.30
2017-08-31T18:42:49.256Z,98.30
2017-08-31T18:45:16.865Z,99.50
2017-08-31T18:47:45.301Z,99.60
2017-08-31T18:50:12.975Z,99.00
2017-08-31T18:52:40.742Z,99.30
2017-08-31T18:55:08.723Z,99.90
2017-08-31T18:57:36.749Z,99.60
2017-08-31T19:00:04.512Z,99.90
2017-08-31T19:02:32.125Z,99.90
2017-08-31T19:04:59.771Z,99.90
2017-08-31T19:07:27.649Z,99.90
2017-08-31T19:09:55.352Z,99.90
2017-08-31T19:12:23.096Z,99.90
2017-08-31T19:14:50.751Z,99.90
2017-08-31T19:17:18.417Z,99.90
2017-08-31T19:19:46.032Z,99.90
2017-08-31T19:22:13.636Z,99.90
2017-08-31T19:24:41.295Z,99.90
2017-08-31T19:27:08.976Z,99.90
2017-08-31T19:29:36.620Z,99.90
2017-08-31T19:32:04.310Z,99.90
2017-08-31T19:34:31.935Z,99.90
2017-08-31T19:36:59.624Z,99.90
2017-08-31T19:39:27.285Z,99.90
2017-08-31T19:41:54.970Z,99.90
2017-08-31T19:44:23.475Z,99.90
2017-08-31T19:46:51.168Z,99.90
2017-08-31T19:49:18.841Z,99.90
2017-08-31T19:51:46.521Z,99.90
2017-08-31T19:54:14.433Z,99.90
2017-08-31T19:56:42.072Z,99.90
2017-08-31T19:59:09.819Z,99.90
2017-08-31T20:01:37.509Z,99.90
2017-08-31T20:04:05.194Z,99.90
2017-08-31T20:06:32.890Z,99.90
2017-08-31T20:09:00.569Z,99.90
2017-08-31T20:11:28.300Z,99.90
2017-08-31T20:13:56.115Z,99.90
2017-08-31T20:16:24.619Z,99.90
2017-08-31T20:18:52.316Z,99.90
2017-08-31T20:21:20.094Z,99.90
2017-08-31T20:23:47.788Z,99.90
2017-08-31T20:26:15.800Z,99.90
2017-08-31T20:28:43.552Z,99.90
2017-08-31T20:31:12.123Z,99.90
2017-08-31T20:33:39.777Z,99.90
2017-08-31T20:36:07.554Z,99.90
2017-08-31T20:38:35.373Z,99.80
2017-08-31T20:41:03.747Z,99.80
2017-08-31T20:43:33.732Z,99.90
2017-08-31T20:46:02.343Z,99.80
2017-08-31T20:48:30.015Z,99.90
2017-08-31T20:50:57.830Z,99.90
2017-08-31T20:53:25.577Z,99.80
2017-08-31T20:55:53.441Z,99.80
2017-08-31T20:58:21.195Z,99.20
2017-08-31T21:00:49.063Z,99.20
2017-08-31T21:03:16.676Z,99.20
2017-08-31T21:05:45.334Z,98.50
2017-08-31T21:08:13.393Z,98.50
2017-08-31T21:10:43.135Z,98.40
2017-08-31T21:13:11.163Z,98.40
2017-08-31T21:15:38.870Z,98.20
2017-08-31T21:18:07.371Z,98.10
2017-08-31T21:20:35.953Z,98.10
2017-08-31T21:23:03.764Z,97.80
2017-08-31T21:25:33.423Z,97.70
2017-08-31T21:28:06.265Z,98.00
2017-08-31T21:30:33.905Z,97.20
2017-08-31T21:33:01.537Z,96.90
2017-08-31T21:35:29.621Z,96.80
2017-08-31T21:37:58.846Z,96.30
2017-08-31T21:40:27.223Z,96.70
2017-08-31T21:42:55.843Z,97.20
2017-08-31T21:45:23.460Z,96.90
2017-08-31T21:47:51.101Z,96.70
2017-08-31T21:50:19.028Z,96.00
2017-08-31T21:52:46.715Z,96.60
2017-08-31T21:55:14.445Z,96.70
2017-08-31T21:57:43.099Z,96.20
2017-08-31T22:00:10.857Z,95.80
2017-08-31T22:02:39.540Z,95.60
2017-08-31T22:05:07.179Z,95.80
2017-08-31T22:07:34.872Z,96.80
2017-08-31T22:10:02.496Z,96.60
2017-08-31T22:12:30.131Z,96.30
2017-08-31T22:14:58.680Z,96.90
2017-08-31T22:17:26.454Z,97.80
2017-08-31T22:19:54.098Z,97.80
2017-08-31T22:22:22.534Z,97.10
2017-08-31T22:24:51.093Z,97.60
2017-08-31T22:27:18.732Z,97.90
2017-08-31T22:29:46.371Z,97.20
2017-08-31T22:32:13.987Z,97.80
2017-08-31T22:34:41.663Z,97.70
2017-08-31T22:37:12.597Z,97.10
2017-08-31T22:39:40.229Z,97.00
2017-08-31T22:42:07.926Z,97.20
2017-08-31T22:44:35.599Z,97.10
2017-08-31T22:47:03.225Z,97.40
2017-08-31T22:49:30.896Z,97.40
2017-08-31T22:51:58.545Z,97.10
2017-08-31T22:54:26.163Z,96.90
2017-08-31T22:56:54.924Z,97.90
2017-08-31T22:59:22.547Z,98.60
2017-08-31T23:01:50.201Z,98.70
2017-08-31T23:04:17.811Z,98.60
2017-08-31T23:06:45.429Z,99.20
2017-08-31T23:09:13.038Z,98.80
2017-08-31T23:11:40.637Z,99.00
2017-08-31T23:14:08.414Z,98.50
2017-08-31T23:16:36.027Z,98.60
2017-08-31T23:19:03.690Z,98.10
2017-08-31T23:21:31.455Z,98.10
2017-08-31T23:23:59.088Z,98.20
2017-08-31T23:26:26.707Z,98.20
2017-08-31T23:28:54.427Z,97.70
2017-08-31T23:31:22.089Z,98.20
2017-08-31T23:33:49.696Z,98.10
2017-08-31T23:36:17.342Z,98.40
2017-08-31T23:38:44.951Z,98.60
2017-08-31T23:41:12.581Z,98.40
2017-08-31T23:43:40.231Z,98.70
2017-08-31T23:46:07.823Z,98.40
2017-08-31T23:48:35.457Z,98.80
2017-08-31T23:51:03.094Z,98.50
2017-08-31T23:53:30.728Z,98.90
2017-08-31T23:55:58.362Z,98.80
2017-08-31T23:58:25.981Z,98.80
